Terminal Aerodrome Forecast
Issued by NWS Huntsville, AL

Home | Current Version | Previous Version | Text Only | Print | Product List | Glossary On
Versions: 1 2 3 4 5 6 7 8 9 10 11 12 13 14 15 16 17 18 19 20 21 22 23 24 25
000
FTUS44 KHUN 270521
TAFHSV
TAF
KHSV 270521Z 2706/2806 10005KT P6SM BKN090
     FM271600 13010KT P6SM -RA OVC050
     FM280000 14010KT P6SM -DZ BKN030=

USA.gov is the U.S. government's official web portal to all federal, state and local government web resources and services.